Time;durP1;ratioP1;P1;durP2;ratioP2;P2;SDS_P1;SDS_P2;PMS_P1;PMS_P2;Temp;Humidity;BMP_temperature;BMP_pressure;BME280_temperature;BME280_humidity;BME280_pressure;Samples;Min_cycle;Max_cycle;Signal;HPM_P1;HPM_P2
2022/09/14 00:01:33;;;;;;;3.88;3.08;;;;;;;;;;5031386;28;20033;-56
2022/09/14 00:04:02;;;;;;;4.57;3.60;;;;;;;;;;5037384;28;20084;-55
2022/09/14 00:06:29;;;;;;;3.78;3.40;;;;;;;;;;5039680;28;20494;-55
2022/09/14 00:08:57;;;;;;;5.72;3.20;;;;;;;;;;5030059;28;20033;-55
2022/09/14 00:11:24;;;;;;;3.97;3.30;;;;;;;;;;5029422;28;20071;-55
2022/09/14 00:13:51;;;;;;;7.72;3.50;;;;;;;;;;5028276;28;20033;-55
2022/09/14 00:16:23;;;;;;;6.55;3.50;;;;;;;;;;5029809;28;20040;-54
2022/09/14 00:18:59;;;;;;;6.07;3.25;;;;;;;;;;5028590;28;20032;-55
2022/09/14 00:21:25;;;;;;;4.65;3.55;;;;;;;;;;5034727;28;20406;-54
2022/09/14 00:23:51;;;;;;;5.13;3.60;;;;;;;;;;5030859;28;20029;-55
2022/09/14 00:26:19;;;;;;;7.40;3.15;;;;;;;;;;5035173;28;20034;-55
2022/09/14 00:28:48;;;;;;;5.27;3.17;;;;;;;;;;5032451;28;20398;-54
2022/09/14 00:31:14;;;;;;;4.55;3.20;;;;;;;;;;5028878;28;20761;-54
2022/09/14 00:33:44;;;;;;;4.10;3.10;;;;;;;;;;5028523;28;20046;-54
2022/09/14 00:36:18;;;;;;;7.25;3.50;;;;;;;;;;5027110;28;20025;-55
2022/09/14 00:38:45;;;;;;;4.88;3.30;;;;;;;;;;5028388;28;20115;-54
2022/09/14 00:41:14;;;;;;;3.97;3.40;;;;;;;;;;5028068;28;20328;-55
2022/09/14 00:43:54;;;;;;;3.63;3.27;;;;;;;;;;5028418;28;20021;-55
2022/09/14 00:46:19;;;;;;;3.92;3.35;;;;;;;;;;5027372;28;20033;-55
2022/09/14 00:48:45;;;;;;;6.72;3.35;;;;;;;;;;5027889;28;20463;-55
2022/09/14 00:51:11;;;;;;;6.20;3.58;;;;;;;;;;5024253;28;20058;-55
2022/09/14 00:53:36;;;;;;;4.78;3.72;;;;;;;;;;5029505;28;20423;-55
2022/09/14 00:56:02;;;;;;;3.50;3.20;;;;;;;;;;5025507;28;20376;-55
2022/09/14 00:58:27;;;;;;;4.63;3.35;;;;;;;;;;5027682;28;20507;-55
2022/09/14 01:00:53;;;;;;;3.92;3.53;;;;;;;;;;5031934;28;20037;-55
2022/09/14 01:03:19;;;;;;;4.97;3.67;;;;;;;;;;5031897;28;20033;-55
2022/09/14 01:06:15;;;;;;;5.88;3.70;;;;;;;;;;5037170;28;20288;-56
2022/09/14 01:09:06;;;;;;;3.47;3.17;;;;;;;;;;5035501;28;20386;-55
2022/09/14 01:11:42;;;;;;;4.35;3.47;;;;;;;;;;5027710;28;20076;-56
2022/09/14 01:14:35;;;;;;;7.00;4.00;;;;;;;;;;5034911;28;20694;-55
2022/09/14 01:17:06;;;;;;;7.70;3.72;;;;;;;;;;5036980;28;20029;-56
2022/09/14 01:20:00;;;;;;;4.30;3.42;;;;;;;;;;5039051;28;20035;-56
2022/09/14 01:22:44;;;;;;;9.32;3.72;;;;;;;;;;5033425;28;20102;-56
2022/09/14 01:25:30;;;;;;;7.57;3.60;;;;;;;;;;5031762;28;20138;-55
2022/09/14 01:28:00;;;;;;;5.88;3.60;;;;;;;;;;5049680;28;20560;-57
2022/09/14 01:30:30;;;;;;;6.93;4.00;;;;;;;;;;5037692;28;20319;-59
2022/09/14 01:33:15;;;;;;;9.75;4.68;;;;;;;;;;5039031;28;20029;-57
2022/09/14 01:35:58;;;;;;;8.45;4.60;;;;;;;;;;5034599;28;20033;-57
2022/09/14 01:38:54;;;;;;;7.47;4.15;;;;;;;;;;5033793;28;20037;-57
2022/09/14 01:41:23;;;;;;;6.65;4.32;;;;;;;;;;5022351;28;20045;-58
2022/09/14 01:43:53;;;;;;;6.10;4.47;;;;;;;;;;5029756;28;20037;-58
2022/09/14 01:46:42;;;;;;;6.50;4.38;;;;;;;;;;5031021;28;20423;-58
2022/09/14 01:49:09;;;;;;;7.82;4.20;;;;;;;;;;5029255;28;20440;-57
2022/09/14 01:51:46;;;;;;;5.05;4.40;;;;;;;;;;5027380;28;20102;-57
2022/09/14 01:54:15;;;;;;;10.25;4.78;;;;;;;;;;5029288;28;20018;-57
2022/09/14 01:57:28;;;;;;;5.50;4.10;;;;;;;;;;5030192;28;20037;-57
2022/09/14 02:00:00;;;;;;;10.57;5.03;;;;;;;;;;5029577;28;20029;-57
2022/09/14 02:02:53;;;;;;;5.47;4.78;;;;;;;;;;5030565;28;20029;-56
2022/09/14 02:05:38;;;;;;;5.22;4.63;;;;;;;;;;5033657;28;20598;-56
2022/09/14 02:08:03;;;;;;;6.15;4.95;;;;;;;;;;5027905;28;20078;-56
2022/09/14 02:10:29;;;;;;;5.10;4.38;;;;;;;;;;5032186;28;20030;-56
2022/09/14 02:12:55;;;;;;;8.63;4.82;;;;;;;;;;5035188;28;20506;-56
2022/09/14 02:15:21;;;;;;;6.60;4.90;;;;;;;;;;5039885;28;20033;-56
2022/09/14 02:17:48;;;;;;;6.82;4.88;;;;;;;;;;5035762;28;20026;-57
2022/09/14 02:20:21;;;;;;;6.97;5.15;;;;;;;;;;5034075;28;20394;-57
2022/09/14 02:22:47;;;;;;;6.70;4.57;;;;;;;;;;5027905;28;20029;-57
2022/09/14 02:25:13;;;;;;;8.45;5.28;;;;;;;;;;5035200;28;20399;-57
2022/09/14 02:27:38;;;;;;;9.43;5.28;;;;;;;;;;5034341;28;20441;-57
2022/09/14 02:30:04;;;;;;;9.00;5.57;;;;;;;;;;5031949;28;20155;-57
2022/09/14 02:32:48;;;;;;;6.55;5.40;;;;;;;;;;5031400;28;20043;-57
2022/09/14 02:35:38;;;;;;;8.50;5.70;;;;;;;;;;5030769;28;20593;-57
2022/09/14 02:38:26;;;;;;;8.98;5.88;;;;;;;;;;5031381;28;20029;-58
2022/09/14 02:41:15;;;;;;;12.15;6.95;;;;;;;;;;5029734;28;20112;-57
2022/09/14 02:43:52;;;;;;;7.03;6.32;;;;;;;;;;5030708;28;20049;-57
2022/09/14 02:47:02;;;;;;;9.15;6.20;;;;;;;;;;5035369;28;20029;-57
2022/09/14 02:50:18;;;;;;;6.45;5.82;;;;;;;;;;5020856;28;20376;-57
2022/09/14 02:53:08;;;;;;;9.50;5.72;;;;;;;;;;5016659;28;20040;-56
2022/09/14 02:55:38;;;;;;;9.63;5.32;;;;;;;;;;5030378;28;20473;-56
2022/09/14 02:58:10;;;;;;;8.35;5.55;;;;;;;;;;5030202;28;20353;-57
2022/09/14 03:00:41;;;;;;;7.90;5.63;;;;;;;;;;5029849;28;20116;-58
2022/09/14 03:03:08;;;;;;;8.07;6.43;;;;;;;;;;5032080;28;20017;-57
2022/09/14 03:05:34;;;;;;;7.70;6.00;;;;;;;;;;5028533;28;20033;-58
2022/09/14 03:08:00;;;;;;;11.10;5.90;;;;;;;;;;5031187;28;20030;-58
2022/09/14 03:10:27;;;;;;;7.00;6.22;;;;;;;;;;5029882;28;20499;-57
2022/09/14 03:12:52;;;;;;;9.82;5.72;;;;;;;;;;5033944;28;20395;-57
2022/09/14 03:15:18;;;;;;;5.75;5.20;;;;;;;;;;5028196;28;20037;-58
2022/09/14 03:17:48;;;;;;;8.07;6.07;;;;;;;;;;5029269;28;20033;-58
2022/09/14 03:20:14;;;;;;;;;;;;;;;;;;5029494;28;20033;-57
2022/09/14 03:22:39;;;;;;;8.65;5.60;;;;;;;;;;5035591;28;19928;-57
2022/09/14 03:25:05;;;;;;;7.13;5.97;;;;;;;;;;5029521;28;20033;-57
2022/09/14 03:27:31;;;;;;;9.50;5.72;;;;;;;;;;5032044;28;20486;-57
2022/09/14 03:29:56;;;;;;;7.30;5.65;;;;;;;;;;5030275;28;20029;-56
2022/09/14 03:32:21;;;;;;;9.63;6.13;;;;;;;;;;5030772;28;20086;-56
2022/09/14 03:34:47;;;;;;;9.23;5.95;;;;;;;;;;5030063;28;20032;-56
2022/09/14 03:37:12;;;;;;;6.68;5.68;;;;;;;;;;5029943;28;20067;-56
2022/09/14 03:39:38;;;;;;;8.10;6.05;;;;;;;;;;5028692;28;20032;-55
2022/09/14 03:42:03;;;;;;;9.00;6.90;;;;;;;;;;5035919;28;20026;-55
2022/09/14 03:44:29;;;;;;;8.02;6.50;;;;;;;;;;5033870;28;20495;-57
2022/09/14 03:46:54;;;;;;;7.07;6.18;;;;;;;;;;5030551;28;20023;-56
2022/09/14 03:49:19;;;;;;;6.72;5.65;;;;;;;;;;5031867;28;20033;-56
2022/09/14 03:51:45;;;;;;;9.90;5.55;;;;;;;;;;5027931;28;20103;-56
2022/09/14 03:54:10;;;;;;;9.15;6.32;;;;;;;;;;5028680;28;20067;-57
2022/09/14 03:56:35;;;;;;;10.10;6.90;;;;;;;;;;5028081;28;20040;-57
2022/09/14 03:59:01;;;;;;;8.50;6.43;;;;;;;;;;5030566;28;20398;-57
2022/09/14 04:01:26;;;;;;;9.25;5.95;;;;;;;;;;5029490;28;20029;-57
2022/09/14 04:03:51;;;;;;;10.25;6.00;;;;;;;;;;5027259;28;20036;-57
2022/09/14 04:06:18;;;;;;;9.00;6.13;;;;;;;;;;5030691;28;20064;-58
2022/09/14 04:08:45;;;;;;;8.38;6.57;;;;;;;;;;5033865;28;20483;-58
2022/09/14 04:11:15;;;;;;;11.50;6.47;;;;;;;;;;5028582;28;20080;-57
2022/09/14 04:13:41;;;;;;;8.68;7.15;;;;;;;;;;5032394;28;20033;-57
2022/09/14 04:16:06;;;;;;;14.52;8.25;;;;;;;;;;5030988;28;20049;-57
2022/09/14 04:18:32;;;;;;;8.32;6.60;;;;;;;;;;5035086;28;20127;-57
2022/09/14 04:21:00;;;;;;;9.60;6.63;;;;;;;;;;5033159;28;20112;-57
2022/09/14 04:23:26;;;;;;;9.10;7.10;;;;;;;;;;5029256;28;20029;-56
2022/09/14 04:25:52;;;;;;;9.70;6.60;;;;;;;;;;5035221;28;20032;-57
2022/09/14 04:28:19;;;;;;;9.52;7.00;;;;;;;;;;5034953;28;20525;-58
2022/09/14 04:30:53;;;;;;;9.40;6.90;;;;;;;;;;5030578;28;20095;-57
2022/09/14 04:33:19;;;;;;;11.00;6.82;;;;;;;;;;5031528;28;20029;-57
2022/09/14 04:35:44;;;;;;;8.75;7.43;;;;;;;;;;5030440;28;20448;-58
2022/09/14 04:38:09;;;;;;;9.23;6.88;;;;;;;;;;5033490;28;20029;-59
2022/09/14 04:40:39;;;;;;;9.05;6.30;;;;;;;;;;5035903;28;20025;-58
2022/09/14 04:43:05;;;;;;;10.50;6.80;;;;;;;;;;5032699;28;20033;-58
2022/09/14 04:45:31;;;;;;;8.27;7.43;;;;;;;;;;5032338;28;20128;-58
2022/09/14 04:47:56;;;;;;;9.27;7.47;;;;;;;;;;5040169;28;20315;-58
2022/09/14 04:50:21;;;;;;;12.57;6.75;;;;;;;;;;5033249;28;20041;-58
2022/09/14 04:52:47;;;;;;;9.85;6.80;;;;;;;;;;5025141;28;20018;-49
2022/09/14 04:55:12;;;;;;;9.98;7.20;;;;;;;;;;5032361;28;20916;-51
2022/09/14 04:57:38;;;;;;;9.82;7.32;;;;;;;;;;5030480;28;20426;-52
2022/09/14 05:00:03;;;;;;;13.88;6.60;;;;;;;;;;5029538;28;20505;-50
2022/09/14 05:02:30;;;;;;;8.10;6.60;;;;;;;;;;5028944;28;20025;-58
2022/09/14 05:04:57;;;;;;;9.52;6.38;;;;;;;;;;5027663;28;20037;-58
2022/09/14 05:07:23;;;;;;;11.98;7.13;;;;;;;;;;5031001;28;20095;-53
2022/09/14 05:09:48;;;;;;;12.60;6.63;;;;;;;;;;5029905;28;20423;-58
2022/09/14 05:12:14;;;;;;;11.25;6.53;;;;;;;;;;5029276;28;20031;-58
2022/09/14 05:14:39;;;;;;;8.93;6.22;;;;;;;;;;5032178;28;20407;-58
2022/09/14 05:17:04;;;;;;;13.65;6.55;;;;;;;;;;5029714;28;20053;-57
2022/09/14 05:19:30;;;;;;;9.63;6.05;;;;;;;;;;5035749;28;20490;-57
2022/09/14 05:21:55;;;;;;;10.82;6.28;;;;;;;;;;5034093;28;20056;-57
2022/09/14 05:24:21;;;;;;;10.75;6.50;;;;;;;;;;5028894;28;20033;-57
2022/09/14 05:26:46;;;;;;;9.10;5.85;;;;;;;;;;5029770;28;20063;-56
2022/09/14 05:29:14;;;;;;;8.50;5.78;;;;;;;;;;5028525;28;20503;-56
2022/09/14 05:31:40;;;;;;;11.02;5.78;;;;;;;;;;5025387;28;20542;-56
2022/09/14 05:34:05;;;;;;;12.07;6.85;;;;;;;;;;5029484;28;20049;-56
2022/09/14 05:36:31;;;;;;;10.85;6.43;;;;;;;;;;5029068;28;20037;-56
2022/09/14 05:38:56;;;;;;;13.48;5.40;;;;;;;;;;5029005;28;20427;-56
2022/09/14 05:41:22;;;;;;;9.63;5.72;;;;;;;;;;5028533;28;20036;-55
2022/09/14 05:43:47;;;;;;;13.02;6.10;;;;;;;;;;5031189;28;20100;-56
2022/09/14 05:46:15;;;;;;;9.93;6.80;;;;;;;;;;5030390;28;20040;-55
2022/09/14 05:48:41;;;;;;;8.13;5.20;;;;;;;;;;5028522;28;20113;-56
2022/09/14 05:51:13;;;;;;;6.38;4.28;;;;;;;;;;5027621;28;20109;-56
2022/09/14 05:53:38;;;;;;;7.43;4.80;;;;;;;;;;5029632;28;20025;-55
2022/09/14 05:56:09;;;;;;;9.88;5.82;;;;;;;;;;5029544;28;20040;-55
2022/09/14 05:58:36;;;;;;;6.13;4.63;;;;;;;;;;5030308;28;20087;-56
2022/09/14 06:01:26;;;;;;;8.02;6.07;;;;;;;;;;5029345;28;20029;-55
2022/09/14 06:03:54;;;;;;;8.25;4.97;;;;;;;;;;5035201;28;20445;-56
2022/09/14 06:06:20;;;;;;;5.70;3.83;;;;;;;;;;5026640;28;20083;-56
2022/09/14 06:08:51;;;;;;;8.38;4.38;;;;;;;;;;5027492;28;20025;-56
2022/09/14 06:11:18;;;;;;;8.93;4.60;;;;;;;;;;5028031;28;20041;-56
2022/09/14 06:13:45;;;;;;;6.93;4.35;;;;;;;;;;5029632;28;20022;-56
2022/09/14 06:16:15;;;;;;;8.30;3.95;;;;;;;;;;5029389;28;20048;-55
2022/09/14 06:18:42;;;;;;;6.70;4.43;;;;;;;;;;5028577;28;20589;-55
2022/09/14 06:21:08;;;;;;;7.18;4.45;;;;;;;;;;5030798;28;20037;-56
2022/09/14 06:23:34;;;;;;;5.82;4.40;;;;;;;;;;5029462;28;20029;-55
2022/09/14 06:26:02;;;;;;;8.00;3.88;;;;;;;;;;5026243;28;20124;-55
2022/09/14 06:28:28;;;;;;;5.80;4.07;;;;;;;;;;5030467;28;20109;-55
2022/09/14 06:30:54;;;;;;;7.97;4.38;;;;;;;;;;5030058;28;20036;-55
2022/09/14 06:33:19;;;;;;;8.27;4.10;;;;;;;;;;5030053;28;20029;-55
2022/09/14 06:36:03;;;;;;;8.40;4.40;;;;;;;;;;5031682;28;20090;-55
2022/09/14 06:38:29;;;;;;;5.97;4.55;;;;;;;;;;5028753;28;20028;-55
2022/09/14 06:40:55;;;;;;;5.68;4.47;;;;;;;;;;5029825;28;20029;-55
2022/09/14 06:43:25;;;;;;;7.93;4.05;;;;;;;;;;5028701;28;20037;-55
2022/09/14 06:46:03;;;;;;;8.73;4.30;;;;;;;;;;5031851;28;20036;-55
2022/09/14 06:48:33;;;;;;;10.52;4.28;;;;;;;;;;5028368;28;20060;-55
2022/09/14 06:50:59;;;;;;;6.40;4.68;;;;;;;;;;5030074;28;20021;-55
2022/09/14 06:53:24;;;;;;;8.70;5.13;;;;;;;;;;5029607;28;20496;-55
2022/09/14 06:55:51;;;;;;;7.28;4.28;;;;;;;;;;5027898;28;20083;-55
2022/09/14 06:58:16;;;;;;;9.48;4.25;;;;;;;;;;5026425;28;20096;-55
2022/09/14 07:00:42;;;;;;;8.88;4.50;;;;;;;;;;5027001;28;20028;-55
2022/09/14 07:03:07;;;;;;;8.88;4.60;;;;;;;;;;5028676;28;20083;-55
2022/09/14 07:05:33;;;;;;;7.80;4.43;;;;;;;;;;5027370;28;20062;-55
2022/09/14 07:07:58;;;;;;;8.10;4.40;;;;;;;;;;5030327;28;20390;-55
2022/09/14 07:10:26;;;;;;;12.82;4.70;;;;;;;;;;5026389;28;20487;-55
2022/09/14 07:12:53;;;;;;;7.90;4.35;;;;;;;;;;5028156;28;20199;-55
2022/09/14 07:15:19;;;;;;;8.63;4.63;;;;;;;;;;5027668;28;20029;-55
2022/09/14 07:17:46;;;;;;;6.00;4.32;;;;;;;;;;5028578;28;20292;-56
2022/09/14 07:20:11;;;;;;;4.90;4.07;;;;;;;;;;5027985;28;20499;-56
2022/09/14 07:22:36;;;;;;;7.72;4.78;;;;;;;;;;5026403;28;20033;-56
2022/09/14 07:25:02;;;;;;;7.22;4.20;;;;;;;;;;5026346;28;20079;-57
2022/09/14 07:27:28;;;;;;;7.15;4.20;;;;;;;;;;5028019;28;20033;-56
2022/09/14 07:29:53;;;;;;;8.07;4.35;;;;;;;;;;5026927;28;22100;-56
2022/09/14 07:32:18;;;;;;;8.15;4.63;;;;;;;;;;5027602;28;20033;-56
2022/09/14 07:34:44;;;;;;;13.10;4.78;;;;;;;;;;5028901;28;20021;-55
2022/09/14 07:37:09;;;;;;;5.88;4.32;;;;;;;;;;5029363;28;20021;-55
2022/09/14 07:39:35;;;;;;;7.40;4.38;;;;;;;;;;5028108;28;20025;-55
2022/09/14 07:42:01;;;;;;;15.20;7.63;;;;;;;;;;5029197;28;20025;-55
2022/09/14 07:44:26;;;;;;;8.57;5.05;;;;;;;;;;5029310;28;20501;-55
2022/09/14 07:46:51;;;;;;;5.85;4.47;;;;;;;;;;5026857;28;20021;-55
2022/09/14 07:49:17;;;;;;;8.02;4.20;;;;;;;;;;5028055;28;20033;-55
2022/09/14 07:51:43;;;;;;;8.25;4.32;;;;;;;;;;5030920;28;20028;-55
2022/09/14 07:54:11;;;;;;;8.40;4.50;;;;;;;;;;5030753;28;20036;-54
2022/09/14 07:56:37;;;;;;;8.30;4.55;;;;;;;;;;5027092;28;20049;-55
2022/09/14 07:59:04;;;;;;;9.55;4.15;;;;;;;;;;5026995;28;20060;-55
2022/09/14 08:01:30;;;;;;;9.73;4.72;;;;;;;;;;5026971;28;20033;-55
2022/09/14 08:03:59;;;;;;;6.72;4.40;;;;;;;;;;5028030;28;20326;-56
2022/09/14 08:06:25;;;;;;;4.68;4.00;;;;;;;;;;5027215;28;20116;-55
2022/09/14 08:08:52;;;;;;;9.60;4.82;;;;;;;;;;5027433;28;20159;-55
2022/09/14 08:11:19;;;;;;;8.52;4.60;;;;;;;;;;5026427;28;20039;-55
2022/09/14 08:13:51;;;;;;;7.20;4.47;;;;;;;;;;5024627;28;20324;-55
2022/09/14 08:16:18;;;;;;;9.38;4.32;;;;;;;;;;5026451;28;20036;-55
2022/09/14 08:18:44;;;;;;;6.90;5.00;;;;;;;;;;5027114;28;20025;-55
2022/09/14 08:21:12;;;;;;;7.03;4.20;;;;;;;;;;5027092;28;20090;-54
2022/09/14 08:23:39;;;;;;;6.57;4.30;;;;;;;;;;5027583;28;20399;-55
2022/09/14 08:26:09;;;;;;;8.82;4.18;;;;;;;;;;5026646;28;20037;-55
2022/09/14 08:28:35;;;;;;;7.85;4.10;;;;;;;;;;5026780;28;20477;-55
2022/09/14 08:31:07;;;;;;;9.48;4.15;;;;;;;;;;5027875;28;20026;-55
2022/09/14 08:33:34;;;;;;;8.13;4.30;;;;;;;;;;5024119;28;20456;-55
2022/09/14 08:35:59;;;;;;;6.80;4.38;;;;;;;;;;5021231;28;20056;-55
2022/09/14 08:38:25;;;;;;;6.60;3.90;;;;;;;;;;5028062;28;20487;-55
2022/09/14 08:40:50;;;;;;;6.65;4.20;;;;;;;;;;5027906;28;20029;-55
2022/09/14 08:43:18;;;;;;;6.50;4.25;;;;;;;;;;5026156;28;20037;-55
2022/09/14 08:45:45;;;;;;;7.00;4.80;;;;;;;;;;5028714;28;20608;-55
2022/09/14 08:48:31;;;;;;;8.27;4.32;;;;;;;;;;5028446;28;20029;-55
2022/09/14 08:50:57;;;;;;;6.22;3.90;;;;;;;;;;5028016;28;20028;-55
2022/09/14 08:53:24;;;;;;;7.28;4.18;;;;;;;;;;5027790;28;20025;-55
2022/09/14 08:55:58;;;;;;;6.22;3.97;;;;;;;;;;5027225;28;20018;-55
2022/09/14 08:58:57;;;;;;;7.38;4.45;;;;;;;;;;5023570;28;20040;-55
2022/09/14 09:01:31;;;;;;;;;;;;;;;;;;5031720;28;20044;-55
2022/09/14 09:04:14;;;;;;;8.23;4.32;;;;;;;;;;5027812;28;20322;-56
2022/09/14 09:06:57;;;;;;;8.07;4.65;;;;;;;;;;5038017;28;20025;-55
2022/09/14 09:09:32;;;;;;;8.63;4.63;;;;;;;;;;5029140;28;20042;-55
2022/09/14 09:11:58;;;;;;;6.00;3.75;;;;;;;;;;5025346;28;20028;-55
2022/09/14 09:14:37;;;;;;;6.90;4.38;;;;;;;;;;5027136;28;20025;-55
2022/09/14 09:17:12;;;;;;;10.20;3.90;;;;;;;;;;5025777;28;20044;-55
2022/09/14 09:19:58;;;;;;;11.15;4.13;;;;;;;;;;5029737;28;20037;-55
2022/09/14 09:22:26;;;;;;;7.40;4.00;;;;;;;;;;5024336;28;20110;-55
2022/09/14 09:24:53;;;;;;;5.73;3.87;;;;;;;;;;5031008;28;20034;-55
2022/09/14 09:27:19;;;;;;;4.38;3.70;;;;;;;;;;5032328;28;20300;-55
2022/09/14 09:29:44;;;;;;;6.00;3.72;;;;;;;;;;5030198;28;20377;-55
2022/09/14 09:32:24;;;;;;;5.30;3.85;;;;;;;;;;5031398;28;20028;-55
2022/09/14 09:34:50;;;;;;;8.43;3.95;;;;;;;;;;5036943;28;20021;-57
2022/09/14 09:37:22;;;;;;;7.68;4.57;;;;;;;;;;5034585;28;20029;-57
2022/09/14 09:39:48;;;;;;;5.03;3.85;;;;;;;;;;5027250;28;20076;-58
2022/09/14 09:42:23;;;;;;;7.10;3.75;;;;;;;;;;5029083;28;20571;-59
2022/09/14 09:44:56;;;;;;;6.55;4.00;;;;;;;;;;5026727;28;20041;-58
2022/09/14 09:47:48;;;;;;;4.60;3.65;;;;;;;;;;5034393;28;20033;-57
2022/09/14 09:50:13;;;;;;;6.53;3.67;;;;;;;;;;5027343;28;20041;-58
2022/09/14 09:52:48;;;;;;;19.23;5.10;;;;;;;;;;5027631;28;20021;-58
2022/09/14 09:55:19;;;;;;;13.13;5.05;;;;;;;;;;5030020;28;20021;-57
2022/09/14 09:57:44;;;;;;;7.20;4.20;;;;;;;;;;5031917;28;20075;-58
2022/09/14 10:00:36;;;;;;;7.63;4.10;;;;;;;;;;5032187;28;20020;-58
2022/09/14 10:03:26;;;;;;;6.70;4.18;;;;;;;;;;5026434;28;20037;-58
2022/09/14 10:06:01;;;;;;;9.05;4.18;;;;;;;;;;5025465;28;20030;-58
2022/09/14 10:08:27;;;;;;;7.22;3.80;;;;;;;;;;5028906;28;20116;-58
2022/09/14 10:10:52;;;;;;;6.50;3.85;;;;;;;;;;5029844;28;20033;-57
2022/09/14 10:13:34;;;;;;;5.78;4.20;;;;;;;;;;5028962;28;20117;-57
2022/09/14 10:16:17;;;;;;;8.15;3.95;;;;;;;;;;5029014;28;20029;-57
2022/09/14 10:18:50;;;;;;;8.02;3.97;;;;;;;;;;5030401;28;20030;-57
2022/09/14 10:21:18;;;;;;;6.97;3.90;;;;;;;;;;5027815;28;20033;-58
2022/09/14 10:23:43;;;;;;;6.80;3.63;;;;;;;;;;5028992;28;20033;-57
2022/09/14 10:26:12;;;;;;;8.13;4.10;;;;;;;;;;5028039;28;20143;-58
2022/09/14 10:28:50;;;;;;;6.40;4.18;;;;;;;;;;5026172;28;20026;-58
2022/09/14 10:31:23;;;;;;;4.82;3.83;;;;;;;;;;5027110;28;20033;-58
2022/09/14 10:33:52;;;;;;;5.50;3.63;;;;;;;;;;5024866;28;20036;-57
2022/09/14 10:36:40;;;;;;;12.45;4.40;;;;;;;;;;5026371;28;20558;-58
2022/09/14 10:39:28;;;;;;;6.40;4.88;;;;;;;;;;5027375;28;20107;-57
2022/09/14 10:42:04;;;;;;;5.15;3.85;;;;;;;;;;5025629;28;20111;-57
2022/09/14 10:44:48;;;;;;;8.02;3.28;;;;;;;;;;5027079;28;20060;-57
2022/09/14 10:47:31;;;;;;;7.47;3.80;;;;;;;;;;5025264;28;20028;-57
2022/09/14 10:50:14;;;;;;;5.43;3.70;;;;;;;;;;5028973;28;20029;-57
2022/09/14 10:52:39;;;;;;;7.60;3.60;;;;;;;;;;5024836;28;20029;-58
2022/09/14 10:55:30;;;;;;;6.15;3.78;;;;;;;;;;5032769;28;20372;-56
2022/09/14 10:58:23;;;;;;;8.75;4.45;;;;;;;;;;5028130;28;20395;-56
2022/09/14 11:01:21;;;;;;;8.40;4.07;;;;;;;;;;5031240;28;20026;-55
2022/09/14 11:04:08;;;;;;;7.30;4.15;;;;;;;;;;5025261;28;20041;-56
2022/09/14 11:07:03;;;;;;;5.95;3.50;;;;;;;;;;5023493;28;20037;-56
2022/09/14 11:09:56;;;;;;;8.75;3.80;;;;;;;;;;5027486;28;20704;-56
2022/09/14 11:12:24;;;;;;;11.23;3.70;;;;;;;;;;5025206;28;20053;-55
2022/09/14 11:15:14;;;;;;;9.30;4.40;;;;;;;;;;5027594;28;20018;-55
2022/09/14 11:18:08;;;;;;;7.15;3.95;;;;;;;;;;5027100;28;20029;-55
2022/09/14 11:20:41;;;;;;;8.95;4.13;;;;;;;;;;5024653;28;20032;-56
2022/09/14 11:23:38;;;;;;;10.90;4.45;;;;;;;;;;5025670;28;20117;-55
2022/09/14 11:26:12;;;;;;;10.05;4.00;;;;;;;;;;5023976;28;20028;-55
2022/09/14 11:28:50;;;;;;;6.65;3.85;;;;;;;;;;5028058;28;20034;-55
2022/09/14 11:31:19;;;;;;;5.93;3.90;;;;;;;;;;5029954;28;20416;-55
2022/09/14 11:33:52;;;;;;;9.05;3.60;;;;;;;;;;5025791;28;20444;-56
2022/09/14 11:36:24;;;;;;;7.70;3.55;;;;;;;;;;5028928;28;20394;-55
2022/09/14 11:38:56;;;;;;;5.95;3.80;;;;;;;;;;5028540;28;20104;-55
2022/09/14 11:41:25;;;;;;;4.47;3.17;;;;;;;;;;5026115;28;20099;-56
2022/09/14 11:44:02;;;;;;;8.00;4.05;;;;;;;;;;5026823;28;20040;-56
2022/09/14 11:46:38;;;;;;;10.43;4.20;;;;;;;;;;5026101;28;20641;-55
2022/09/14 11:49:17;;;;;;;8.98;3.90;;;;;;;;;;5026567;28;20033;-56
2022/09/14 11:51:50;;;;;;;6.28;3.40;;;;;;;;;;5021466;28;20038;-55
2022/09/14 11:54:19;;;;;;;10.18;3.28;;;;;;;;;;5029593;28;20044;-56
2022/09/14 11:56:52;;;;;;;7.03;3.53;;;;;;;;;;5023851;28;20426;-56
2022/09/14 12:00:08;;;;;;;6.25;3.08;;;;;;;;;;5021353;28;20040;-55
2022/09/14 12:02:37;;;;;;;6.70;3.13;;;;;;;;;;5022906;28;20191;-56
2022/09/14 12:05:04;;;;;;;4.20;1.80;;;;;;;;;;5026851;28;20084;-56
2022/09/14 12:07:38;;;;;;;4.22;1.98;;;;;;;;;;5032490;28;20056;-55
2022/09/14 12:10:22;;;;;;;3.78;1.52;;;;;;;;;;5027694;28;20040;-55
2022/09/14 12:12:56;;;;;;;4.47;1.92;;;;;;;;;;5026726;28;20463;-55
2022/09/14 12:15:25;;;;;;;6.03;1.60;;;;;;;;;;5027859;28;20029;-55
2022/09/14 12:18:10;;;;;;;5.28;2.08;;;;;;;;;;5027451;28;20086;-55
2022/09/14 12:20:51;;;;;;;6.25;2.40;;;;;;;;;;5026331;28;20033;-57
2022/09/14 12:23:19;;;;;;;3.50;2.20;;;;;;;;;;5024156;28;20115;-57
2022/09/14 12:25:52;;;;;;;6.03;2.58;;;;;;;;;;5026628;28;20037;-57
2022/09/14 12:28:37;;;;;;;7.30;2.60;;;;;;;;;;5026775;28;20165;-57
2022/09/14 12:31:03;;;;;;;7.70;2.60;;;;;;;;;;5025301;28;20040;-57
2022/09/14 12:33:34;;;;;;;5.68;2.80;;;;;;;;;;5024751;28;20455;-57
2022/09/14 12:35:59;;;;;;;5.65;2.95;;;;;;;;;;5023466;28;20029;-57
2022/09/14 12:38:30;;;;;;;5.28;2.70;;;;;;;;;;5025865;28;20032;-57
2022/09/14 12:41:00;;;;;;;5.03;2.85;;;;;;;;;;5025870;28;20045;-58
2022/09/14 12:43:31;;;;;;;6.72;2.83;;;;;;;;;;5026955;28;20125;-57
2022/09/14 12:46:04;;;;;;;5.68;2.53;;;;;;;;;;5031275;28;20871;-57
2022/09/14 12:48:49;;;;;;;6.63;2.33;;;;;;;;;;5025206;28;20589;-57
2022/09/14 12:51:34;;;;;;;9.18;2.90;;;;;;;;;;5024220;28;20032;-57
2022/09/14 12:54:19;;;;;;;4.05;2.40;;;;;;;;;;5023915;28;20025;-57
2022/09/14 12:57:17;;;;;;;7.00;2.75;;;;;;;;;;5025561;28;20033;-57
2022/09/14 13:00:03;;;;;;;5.78;2.90;;;;;;;;;;5024648;28;20045;-57
2022/09/14 13:02:37;;;;;;;6.00;3.22;;;;;;;;;;5029307;28;20076;-58
2022/09/14 13:05:06;;;;;;;5.25;3.13;;;;;;;;;;5028433;28;20025;-58
2022/09/14 13:07:35;;;;;;;5.43;3.10;;;;;;;;;;5028165;28;20037;-58
2022/09/14 13:10:02;;;;;;;5.60;2.63;;;;;;;;;;5029163;28;20037;-58
2022/09/14 13:12:35;;;;;;;7.75;3.20;;;;;;;;;;5027701;28;20021;-58
2022/09/14 13:15:14;;;;;;;4.70;3.08;;;;;;;;;;5028811;28;20021;-57
2022/09/14 13:17:57;;;;;;;6.20;3.00;;;;;;;;;;5027772;28;20026;-58
2022/09/14 13:20:23;;;;;;;5.72;3.65;;;;;;;;;;5028712;28;20052;-56
2022/09/14 13:22:48;;;;;;;5.65;2.95;;;;;;;;;;5053607;28;20025;-56
2022/09/14 13:25:35;;;;;;;12.63;3.83;;;;;;;;;;5028222;28;20351;-57
2022/09/14 13:28:10;;;;;;;6.07;3.03;;;;;;;;;;5027542;28;20096;-57
2022/09/14 13:30:35;;;;;;;11.02;3.63;;;;;;;;;;5031221;28;20162;-57
2022/09/14 13:33:03;;;;;;;7.07;2.95;;;;;;;;;;5030287;28;20565;-57
2022/09/14 13:35:42;;;;;;;14.23;3.10;;;;;;;;;;5027825;28;20026;-57
2022/09/14 13:38:16;;;;;;;14.55;3.55;;;;;;;;;;5028413;28;20149;-57
2022/09/14 13:40:41;;;;;;;7.38;2.38;;;;;;;;;;5028808;28;20037;-59
2022/09/14 13:43:07;;;;;;;5.65;2.42;;;;;;;;;;5028559;28;20635;-59
2022/09/14 13:45:33;;;;;;;5.05;2.40;;;;;;;;;;5028159;28;20124;-58
2022/09/14 13:47:59;;;;;;;4.50;1.90;;;;;;;;;;5028328;28;20053;-58
2022/09/14 13:50:25;;;;;;;4.93;2.03;;;;;;;;;;5027112;28;20029;-59
2022/09/14 13:52:52;;;;;;;4.35;1.73;;;;;;;;;;5030160;28;20379;-59
2022/09/14 13:55:22;;;;;;;5.07;2.17;;;;;;;;;;5029087;28;20034;-59
2022/09/14 13:58:12;;;;;;;6.80;2.70;;;;;;;;;;5028927;28;20053;-59
2022/09/14 14:00:59;;;;;;;3.78;2.00;;;;;;;;;;5028898;28;20032;-61
2022/09/14 14:03:38;;;;;;;3.75;2.13;;;;;;;;;;5026058;28;20076;-59
2022/09/14 14:06:29;;;;;;;3.85;1.90;;;;;;;;;;5027462;28;20033;-59
2022/09/14 14:09:09;;;;;;;6.05;2.10;;;;;;;;;;5026338;28;20041;-58
2022/09/14 14:11:39;;;;;;;2.75;1.65;;;;;;;;;;5027524;28;20025;-58
2022/09/14 14:14:14;;;;;;;3.88;1.80;;;;;;;;;;5029034;28;20025;-59
2022/09/14 14:16:39;;;;;;;5.53;1.98;;;;;;;;;;5029609;28;20029;-59
2022/09/14 14:19:23;;;;;;;2.70;1.40;;;;;;;;;;5029756;28;20395;-59
2022/09/14 14:21:49;;;;;;;2.42;1.50;;;;;;;;;;5028316;28;20025;-58
2022/09/14 14:24:24;;;;;;;5.18;1.98;;;;;;;;;;5028569;28;20022;-59
2022/09/14 14:26:52;;;;;;;1.73;1.40;;;;;;;;;;5028888;28;20029;-58
2022/09/14 14:29:17;;;;;;;4.90;1.30;;;;;;;;;;5028564;28;20754;-56
2022/09/14 14:31:43;;;;;;;2.45;2.10;;;;;;;;;;5026529;28;20072;-57
2022/09/14 14:34:21;;;;;;;5.45;2.47;;;;;;;;;;5028649;28;20802;-57
2022/09/14 14:36:48;;;;;;;3.05;1.70;;;;;;;;;;5027648;28;20108;-57
2022/09/14 14:39:16;;;;;;;3.55;2.38;;;;;;;;;;5031340;28;20017;-57
2022/09/14 14:41:42;;;;;;;3.45;1.60;;;;;;;;;;5027953;28;20111;-56
2022/09/14 14:44:19;;;;;;;2.10;1.50;;;;;;;;;;5028400;28;20029;-58
2022/09/14 14:46:44;;;;;;;3.40;1.50;;;;;;;;;;5027052;28;20140;-57
2022/09/14 14:49:12;;;;;;;2.83;1.40;;;;;;;;;;5021714;28;20067;-56
2022/09/14 14:51:38;;;;;;;1.55;1.20;;;;;;;;;;5027277;28;20135;-56
2022/09/14 14:54:03;;;;;;;4.18;1.30;;;;;;;;;;5024604;28;20038;-57
2022/09/14 14:56:28;;;;;;;8.00;1.50;;;;;;;;;;5028608;28;20025;-56
2022/09/14 14:58:54;;;;;;;2.00;1.30;;;;;;;;;;5029025;28;20037;-57
2022/09/14 15:01:20;;;;;;;1.42;1.15;;;;;;;;;;5028280;28;20029;-57
2022/09/14 15:03:46;;;;;;;3.75;1.30;;;;;;;;;;5029937;28;20041;-58
2022/09/14 15:06:19;;;;;;;2.05;1.27;;;;;;;;;;5027782;28;20055;-58
2022/09/14 15:08:45;;;;;;;1.27;1.17;;;;;;;;;;5026726;28;20021;-59
2022/09/14 15:11:15;;;;;;;1.80;1.35;;;;;;;;;;5028597;28;20033;-58